sensor_id;sensor_type;location;lat;lon;timestamp;P1;durP1;ratioP1;P2;durP2;ratioP2
51981;SDS011;37998;53.416;6.730;2023-10-31T00:01:51;7.45;;;1.70;;
51981;SDS011;37998;53.416;6.730;2023-10-31T00:04:17;7.22;;;1.92;;
51981;SDS011;37998;53.416;6.730;2023-10-31T00:06:43;10.50;;;2.15;;
51981;SDS011;37998;53.416;6.730;2023-10-31T00:09:09;9.02;;;2.25;;
51981;SDS011;37998;53.416;6.730;2023-10-31T00:11:36;8.18;;;1.52;;
51981;SDS011;37998;53.416;6.730;2023-10-31T00:14:02;10.27;;;2.05;;
51981;SDS011;37998;53.416;6.730;2023-10-31T00:16:28;6.13;;;1.70;;
51981;SDS011;37998;53.416;6.730;2023-10-31T00:18:54;12.02;;;1.67;;
51981;SDS011;37998;53.416;6.730;2023-10-31T00:21:20;7.72;;;1.63;;
51981;SDS011;37998;53.416;6.730;2023-10-31T00:23:46;6.93;;;1.40;;
51981;SDS011;37998;53.416;6.730;2023-10-31T00:26:14;7.97;;;2.00;;
51981;SDS011;37998;53.416;6.730;2023-10-31T00:28:48;6.60;;;1.63;;
51981;SDS011;37998;53.416;6.730;2023-10-31T00:31:13;3.22;;;1.33;;
51981;SDS011;37998;53.416;6.730;2023-10-31T00:33:39;8.13;;;1.80;;
51981;SDS011;37998;53.416;6.730;2023-10-31T00:36:05;7.32;;;1.80;;
51981;SDS011;37998;53.416;6.730;2023-10-31T00:38:32;6.35;;;1.63;;
51981;SDS011;37998;53.416;6.730;2023-10-31T00:40:58;9.75;;;1.98;;
51981;SDS011;37998;53.416;6.730;2023-10-31T00:43:24;10.15;;;1.70;;
51981;SDS011;37998;53.416;6.730;2023-10-31T00:45:50;3.85;;;2.22;;
51981;SDS011;37998;53.416;6.730;2023-10-31T00:48:16;4.75;;;1.52;;
51981;SDS011;37998;53.416;6.730;2023-10-31T00:50:43;5.53;;;1.40;;
51981;SDS011;37998;53.416;6.730;2023-10-31T00:53:09;6.57;;;1.75;;
51981;SDS011;37998;53.416;6.730;2023-10-31T00:55:35;8.23;;;1.88;;
51981;SDS011;37998;53.416;6.730;2023-10-31T00:58:01;7.47;;;1.60;;
51981;SDS011;37998;53.416;6.730;2023-10-31T01:00:27;7.40;;;1.60;;
51981;SDS011;37998;53.416;6.730;2023-10-31T01:02:53;8.02;;;1.73;;
51981;SDS011;37998;53.416;6.730;2023-10-31T01:05:19;10.80;;;2.10;;
51981;SDS011;37998;53.416;6.730;2023-10-31T01:07:45;5.82;;;1.70;;
51981;SDS011;37998;53.416;6.730;2023-10-31T01:10:10;7.55;;;1.60;;
51981;SDS011;37998;53.416;6.730;2023-10-31T01:12:36;6.97;;;1.50;;
51981;SDS011;37998;53.416;6.730;2023-10-31T01:15:02;7.72;;;1.90;;
51981;SDS011;37998;53.416;6.730;2023-10-31T01:17:29;8.68;;;1.75;;
51981;SDS011;37998;53.416;6.730;2023-10-31T01:19:55;6.38;;;2.47;;
51981;SDS011;37998;53.416;6.730;2023-10-31T01:22:21;6.47;;;1.55;;
51981;SDS011;37998;53.416;6.730;2023-10-31T01:24:47;5.00;;;1.88;;
51981;SDS011;37998;53.416;6.730;2023-10-31T01:27:13;8.30;;;2.45;;
51981;SDS011;37998;53.416;6.730;2023-10-31T01:29:40;9.52;;;2.38;;
51981;SDS011;37998;53.416;6.730;2023-10-31T01:32:06;9.25;;;2.30;;
51981;SDS011;37998;53.416;6.730;2023-10-31T01:34:32;6.35;;;1.95;;
51981;SDS011;37998;53.416;6.730;2023-10-31T01:36:58;10.70;;;2.67;;
51981;SDS011;37998;53.416;6.730;2023-10-31T01:39:24;9.38;;;2.25;;
51981;SDS011;37998;53.416;6.730;2023-10-31T01:41:50;8.68;;;1.75;;
51981;SDS011;37998;53.416;6.730;2023-10-31T01:44:16;9.73;;;1.80;;
51981;SDS011;37998;53.416;6.730;2023-10-31T01:46:42;12.73;;;2.08;;
51981;SDS011;37998;53.416;6.730;2023-10-31T01:49:08;7.75;;;1.67;;
51981;SDS011;37998;53.416;6.730;2023-10-31T01:51:34;10.05;;;1.90;;
51981;SDS011;37998;53.416;6.730;2023-10-31T01:54:00;12.52;;;2.22;;
51981;SDS011;37998;53.416;6.730;2023-10-31T01:56:26;10.80;;;2.55;;
51981;SDS011;37998;53.416;6.730;2023-10-31T01:58:52;12.98;;;2.05;;
51981;SDS011;37998;53.416;6.730;2023-10-31T02:01:18;4.25;;;1.80;;
51981;SDS011;37998;53.416;6.730;2023-10-31T02:03:45;8.55;;;1.52;;
51981;SDS011;37998;53.416;6.730;2023-10-31T02:06:10;7.07;;;1.75;;
51981;SDS011;37998;53.416;6.730;2023-10-31T02:08:36;6.65;;;1.50;;
51981;SDS011;37998;53.416;6.730;2023-10-31T02:11:02;5.80;;;1.58;;
51981;SDS011;37998;53.416;6.730;2023-10-31T02:13:30;5.07;;;1.85;;
51981;SDS011;37998;53.416;6.730;2023-10-31T02:15:56;7.60;;;2.25;;
51981;SDS011;37998;53.416;6.730;2023-10-31T02:18:22;9.43;;;1.80;;
51981;SDS011;37998;53.416;6.730;2023-10-31T02:20:48;7.65;;;2.10;;
51981;SDS011;37998;53.416;6.730;2023-10-31T02:23:17;9.00;;;2.00;;
51981;SDS011;37998;53.416;6.730;2023-10-31T02:25:43;9.23;;;2.05;;
51981;SDS011;37998;53.416;6.730;2023-10-31T02:28:09;8.23;;;1.85;;
51981;SDS011;37998;53.416;6.730;2023-10-31T02:30:35;5.65;;;1.65;;
51981;SDS011;37998;53.416;6.730;2023-10-31T02:33:02;7.75;;;2.40;;
51981;SDS011;37998;53.416;6.730;2023-10-31T02:35:28;6.75;;;1.80;;
51981;SDS011;37998;53.416;6.730;2023-10-31T02:37:54;4.50;;;1.73;;
51981;SDS011;37998;53.416;6.730;2023-10-31T02:40:19;12.93;;;2.40;;
51981;SDS011;37998;53.416;6.730;2023-10-31T02:42:45;12.35;;;3.80;;
51981;SDS011;37998;53.416;6.730;2023-10-31T02:45:12;9.80;;;2.38;;
51981;SDS011;37998;53.416;6.730;2023-10-31T02:47:38;14.45;;;2.03;;
51981;SDS011;37998;53.416;6.730;2023-10-31T02:50:03;10.95;;;2.35;;
51981;SDS011;37998;53.416;6.730;2023-10-31T02:52:30;11.30;;;1.95;;
51981;SDS011;37998;53.416;6.730;2023-10-31T02:54:56;7.72;;;2.55;;
51981;SDS011;37998;53.416;6.730;2023-10-31T02:57:22;12.05;;;2.40;;
51981;SDS011;37998;53.416;6.730;2023-10-31T02:59:48;13.40;;;2.40;;
51981;SDS011;37998;53.416;6.730;2023-10-31T03:02:14;9.52;;;2.78;;
51981;SDS011;37998;53.416;6.730;2023-10-31T03:04:40;13.63;;;1.80;;
51981;SDS011;37998;53.416;6.730;2023-10-31T03:07:06;10.18;;;2.70;;
51981;SDS011;37998;53.416;6.730;2023-10-31T03:09:32;15.68;;;2.65;;
51981;SDS011;37998;53.416;6.730;2023-10-31T03:11:57;10.32;;;2.17;;
51981;SDS011;37998;53.416;6.730;2023-10-31T03:14:24;15.07;;;2.45;;
51981;SDS011;37998;53.416;6.730;2023-10-31T03:16:50;15.13;;;2.88;;
51981;SDS011;37998;53.416;6.730;2023-10-31T03:19:16;13.95;;;2.85;;
51981;SDS011;37998;53.416;6.730;2023-10-31T03:21:42;12.88;;;2.67;;
51981;SDS011;37998;53.416;6.730;2023-10-31T03:24:08;14.80;;;2.78;;
51981;SDS011;37998;53.416;6.730;2023-10-31T03:26:35;21.92;;;3.40;;
51981;SDS011;37998;53.416;6.730;2023-10-31T03:29:01;18.25;;;2.95;;
51981;SDS011;37998;53.416;6.730;2023-10-31T03:31:26;14.70;;;2.83;;
51981;SDS011;37998;53.416;6.730;2023-10-31T03:33:53;11.98;;;2.38;;
51981;SDS011;37998;53.416;6.730;2023-10-31T03:36:19;13.48;;;2.30;;
51981;SDS011;37998;53.416;6.730;2023-10-31T03:38:45;12.23;;;2.63;;
51981;SDS011;37998;53.416;6.730;2023-10-31T03:41:11;16.33;;;3.00;;
51981;SDS011;37998;53.416;6.730;2023-10-31T03:43:38;14.90;;;2.22;;
51981;SDS011;37998;53.416;6.730;2023-10-31T03:46:04;10.80;;;2.58;;
51981;SDS011;37998;53.416;6.730;2023-10-31T03:48:30;15.13;;;2.00;;
51981;SDS011;37998;53.416;6.730;2023-10-31T03:50:57;10.82;;;1.73;;
51981;SDS011;37998;53.416;6.730;2023-10-31T03:53:23;9.50;;;1.25;;
51981;SDS011;37998;53.416;6.730;2023-10-31T03:55:49;13.77;;;1.77;;
51981;SDS011;37998;53.416;6.730;2023-10-31T03:58:14;10.18;;;1.63;;
51981;SDS011;37998;53.416;6.730;2023-10-31T04:00:40;8.43;;;1.77;;
51981;SDS011;37998;53.416;6.730;2023-10-31T04:03:07;4.78;;;1.02;;
51981;SDS011;37998;53.416;6.730;2023-10-31T04:05:33;9.50;;;1.52;;
51981;SDS011;37998;53.416;6.730;2023-10-31T04:07:59;10.95;;;1.65;;
51981;SDS011;37998;53.416;6.730;2023-10-31T04:10:25;5.63;;;1.35;;
51981;SDS011;37998;53.416;6.730;2023-10-31T04:12:51;6.28;;;1.30;;
51981;SDS011;37998;53.416;6.730;2023-10-31T04:15:17;8.90;;;1.63;;
51981;SDS011;37998;53.416;6.730;2023-10-31T04:17:43;5.38;;;1.23;;
51981;SDS011;37998;53.416;6.730;2023-10-31T04:20:09;6.47;;;2.35;;
51981;SDS011;37998;53.416;6.730;2023-10-31T04:22:35;8.80;;;1.70;;
51981;SDS011;37998;53.416;6.730;2023-10-31T04:25:02;4.97;;;1.60;;
51981;SDS011;37998;53.416;6.730;2023-10-31T04:27:28;7.90;;;1.60;;
51981;SDS011;37998;53.416;6.730;2023-10-31T04:29:54;5.40;;;1.40;;
51981;SDS011;37998;53.416;6.730;2023-10-31T04:32:20;6.40;;;1.60;;
51981;SDS011;37998;53.416;6.730;2023-10-31T04:34:45;5.53;;;1.30;;
51981;SDS011;37998;53.416;6.730;2023-10-31T04:37:11;8.98;;;2.05;;
51981;SDS011;37998;53.416;6.730;2023-10-31T04:39:37;8.57;;;1.48;;
51981;SDS011;37998;53.416;6.730;2023-10-31T04:42:03;5.78;;;1.20;;
51981;SDS011;37998;53.416;6.730;2023-10-31T04:44:29;6.53;;;1.40;;
51981;SDS011;37998;53.416;6.730;2023-10-31T04:46:55;6.50;;;1.50;;
51981;SDS011;37998;53.416;6.730;2023-10-31T04:49:20;4.68;;;1.10;;
51981;SDS011;37998;53.416;6.730;2023-10-31T04:51:47;3.75;;;1.30;;
51981;SDS011;37998;53.416;6.730;2023-10-31T04:54:13;5.53;;;1.58;;
51981;SDS011;37998;53.416;6.730;2023-10-31T04:56:39;5.50;;;1.58;;
51981;SDS011;37998;53.416;6.730;2023-10-31T04:59:05;4.05;;;1.70;;
51981;SDS011;37998;53.416;6.730;2023-10-31T05:01:31;5.13;;;1.33;;
51981;SDS011;37998;53.416;6.730;2023-10-31T05:03:57;3.83;;;1.40;;
51981;SDS011;37998;53.416;6.730;2023-10-31T05:06:23;4.40;;;1.38;;
51981;SDS011;37998;53.416;6.730;2023-10-31T05:08:49;7.13;;;1.60;;
51981;SDS011;37998;53.416;6.730;2023-10-31T05:11:17;4.13;;;1.30;;
51981;SDS011;37998;53.416;6.730;2023-10-31T05:13:47;5.43;;;1.63;;
51981;SDS011;37998;53.416;6.730;2023-10-31T05:16:13;4.97;;;1.40;;
51981;SDS011;37998;53.416;6.730;2023-10-31T05:18:38;6.40;;;1.48;;
51981;SDS011;37998;53.416;6.730;2023-10-31T05:21:04;8.73;;;1.48;;
51981;SDS011;37998;53.416;6.730;2023-10-31T05:23:31;2.67;;;1.25;;
51981;SDS011;37998;53.416;6.730;2023-10-31T05:25:57;3.60;;;1.60;;
51981;SDS011;37998;53.416;6.730;2023-10-31T05:28:23;4.32;;;1.48;;
51981;SDS011;37998;53.416;6.730;2023-10-31T05:30:49;4.30;;;1.65;;
51981;SDS011;37998;53.416;6.730;2023-10-31T05:33:17;4.25;;;1.52;;
51981;SDS011;37998;53.416;6.730;2023-10-31T05:35:43;4.68;;;1.40;;
51981;SDS011;37998;53.416;6.730;2023-10-31T05:38:09;4.82;;;1.70;;
51981;SDS011;37998;53.416;6.730;2023-10-31T05:40:35;4.95;;;1.63;;
51981;SDS011;37998;53.416;6.730;2023-10-31T05:43:01;6.03;;;1.77;;
51981;SDS011;37998;53.416;6.730;2023-10-31T05:45:28;6.00;;;1.67;;
51981;SDS011;37998;53.416;6.730;2023-10-31T05:47:55;5.25;;;2.15;;
51981;SDS011;37998;53.416;6.730;2023-10-31T05:50:20;3.20;;;2.08;;
51981;SDS011;37998;53.416;6.730;2023-10-31T05:52:46;4.93;;;2.22;;
51981;SDS011;37998;53.416;6.730;2023-10-31T05:55:13;6.75;;;2.50;;
51981;SDS011;37998;53.416;6.730;2023-10-31T05:57:38;5.60;;;2.72;;
51981;SDS011;37998;53.416;6.730;2023-10-31T06:00:05;5.15;;;2.30;;
51981;SDS011;37998;53.416;6.730;2023-10-31T06:02:40;4.70;;;2.20;;
51981;SDS011;37998;53.416;6.730;2023-10-31T06:05:06;5.53;;;2.60;;
51981;SDS011;37998;53.416;6.730;2023-10-31T06:07:32;6.85;;;2.92;;
51981;SDS011;37998;53.416;6.730;2023-10-31T06:09:58;3.45;;;2.55;;
51981;SDS011;37998;53.416;6.730;2023-10-31T06:12:24;5.88;;;2.53;;
51981;SDS011;37998;53.416;6.730;2023-10-31T06:14:49;6.80;;;2.63;;
51981;SDS011;37998;53.416;6.730;2023-10-31T06:17:15;4.53;;;2.50;;
51981;SDS011;37998;53.416;6.730;2023-10-31T06:19:41;4.78;;;2.50;;
51981;SDS011;37998;53.416;6.730;2023-10-31T06:22:11;5.10;;;2.58;;
51981;SDS011;37998;53.416;6.730;2023-10-31T06:24:37;4.57;;;2.75;;
51981;SDS011;37998;53.416;6.730;2023-10-31T06:27:03;8.57;;;2.80;;
51981;SDS011;37998;53.416;6.730;2023-10-31T06:29:29;8.27;;;2.80;;
51981;SDS011;37998;53.416;6.730;2023-10-31T06:31:55;4.70;;;2.72;;
51981;SDS011;37998;53.416;6.730;2023-10-31T06:34:20;5.70;;;4.35;;
51981;SDS011;37998;53.416;6.730;2023-10-31T06:36:46;5.82;;;3.10;;
51981;SDS011;37998;53.416;6.730;2023-10-31T06:39:12;4.78;;;2.95;;
51981;SDS011;37998;53.416;6.730;2023-10-31T06:41:38;5.05;;;3.33;;
51981;SDS011;37998;53.416;6.730;2023-10-31T06:44:04;4.28;;;2.92;;
51981;SDS011;37998;53.416;6.730;2023-10-31T06:46:30;7.47;;;3.33;;
51981;SDS011;37998;53.416;6.730;2023-10-31T06:48:55;2.80;;;2.45;;
51981;SDS011;37998;53.416;6.730;2023-10-31T06:51:21;5.65;;;3.25;;
51981;SDS011;37998;53.416;6.730;2023-10-31T06:53:47;3.88;;;3.30;;
51981;SDS011;37998;53.416;6.730;2023-10-31T06:56:13;3.63;;;2.55;;
51981;SDS011;37998;53.416;6.730;2023-10-31T06:58:39;6.45;;;3.03;;
51981;SDS011;37998;53.416;6.730;2023-10-31T07:01:05;5.60;;;2.83;;
51981;SDS011;37998;53.416;6.730;2023-10-31T07:03:30;6.95;;;3.05;;
51981;SDS011;37998;53.416;6.730;2023-10-31T07:05:57;5.25;;;2.90;;
51981;SDS011;37998;53.416;6.730;2023-10-31T07:08:24;3.25;;;2.33;;
51981;SDS011;37998;53.416;6.730;2023-10-31T07:10:50;6.65;;;2.95;;
51981;SDS011;37998;53.416;6.730;2023-10-31T07:13:16;6.13;;;2.50;;
51981;SDS011;37998;53.416;6.730;2023-10-31T07:15:42;8.18;;;3.15;;
51981;SDS011;37998;53.416;6.730;2023-10-31T07:18:07;4.20;;;2.47;;
51981;SDS011;37998;53.416;6.730;2023-10-31T07:20:33;7.68;;;2.70;;
51981;SDS011;37998;53.416;6.730;2023-10-31T07:22:59;2.95;;;2.38;;
51981;SDS011;37998;53.416;6.730;2023-10-31T07:25:25;5.80;;;2.17;;
51981;SDS011;37998;53.416;6.730;2023-10-31T07:27:51;9.82;;;3.38;;
51981;SDS011;37998;53.416;6.730;2023-10-31T07:30:17;3.38;;;2.50;;
51981;SDS011;37998;53.416;6.730;2023-10-31T07:32:43;6.18;;;2.17;;
51981;SDS011;37998;53.416;6.730;2023-10-31T07:35:08;6.57;;;2.65;;
51981;SDS011;37998;53.416;6.730;2023-10-31T07:37:34;5.60;;;2.00;;
51981;SDS011;37998;53.416;6.730;2023-10-31T07:40:00;4.88;;;2.00;;
51981;SDS011;37998;53.416;6.730;2023-10-31T07:42:26;3.30;;;1.83;;
51981;SDS011;37998;53.416;6.730;2023-10-31T07:44:52;4.75;;;1.88;;
51981;SDS011;37998;53.416;6.730;2023-10-31T07:47:18;7.47;;;2.15;;
51981;SDS011;37998;53.416;6.730;2023-10-31T07:49:43;5.63;;;1.60;;
51981;SDS011;37998;53.416;6.730;2023-10-31T07:52:09;10.00;;;1.90;;
51981;SDS011;37998;53.416;6.730;2023-10-31T07:54:38;3.53;;;1.88;;
51981;SDS011;37998;53.416;6.730;2023-10-31T07:57:04;5.80;;;1.70;;
51981;SDS011;37998;53.416;6.730;2023-10-31T07:59:32;6.53;;;2.15;;
51981;SDS011;37998;53.416;6.730;2023-10-31T08:02:01;5.30;;;2.00;;
51981;SDS011;37998;53.416;6.730;2023-10-31T08:04:28;4.03;;;2.15;;
51981;SDS011;37998;53.416;6.730;2023-10-31T08:06:55;8.13;;;2.00;;
51981;SDS011;37998;53.416;6.730;2023-10-31T08:09:21;8.38;;;1.75;;
51981;SDS011;37998;53.416;6.730;2023-10-31T08:11:47;5.53;;;1.83;;
51981;SDS011;37998;53.416;6.730;2023-10-31T08:14:13;4.75;;;1.88;;
51981;SDS011;37998;53.416;6.730;2023-10-31T08:16:41;5.80;;;2.05;;
51981;SDS011;37998;53.416;6.730;2023-10-31T08:19:07;7.95;;;2.60;;
51981;SDS011;37998;53.416;6.730;2023-10-31T08:21:33;7.60;;;2.03;;
51981;SDS011;37998;53.416;6.730;2023-10-31T08:24:03;5.97;;;1.77;;
51981;SDS011;37998;53.416;6.730;2023-10-31T08:26:30;6.00;;;1.48;;
51981;SDS011;37998;53.416;6.730;2023-10-31T08:28:57;7.80;;;1.73;;
51981;SDS011;37998;53.416;6.730;2023-10-31T08:31:23;7.97;;;2.00;;
51981;SDS011;37998;53.416;6.730;2023-10-31T08:33:49;7.10;;;1.52;;
51981;SDS011;37998;53.416;6.730;2023-10-31T08:36:15;2.35;;;1.45;;
51981;SDS011;37998;53.416;6.730;2023-10-31T08:38:41;7.95;;;1.50;;
51981;SDS011;37998;53.416;6.730;2023-10-31T08:41:07;7.68;;;1.63;;
51981;SDS011;37998;53.416;6.730;2023-10-31T08:43:32;8.07;;;1.33;;
51981;SDS011;37998;53.416;6.730;2023-10-31T08:45:58;3.70;;;1.50;;
51981;SDS011;37998;53.416;6.730;2023-10-31T08:48:24;6.78;;;1.25;;
51981;SDS011;37998;53.416;6.730;2023-10-31T08:50:50;5.97;;;1.80;;
51981;SDS011;37998;53.416;6.730;2023-10-31T08:53:16;12.13;;;1.80;;
51981;SDS011;37998;53.416;6.730;2023-10-31T08:55:44;13.45;;;1.77;;
51981;SDS011;37998;53.416;6.730;2023-10-31T08:58:11;10.57;;;2.20;;
51981;SDS011;37998;53.416;6.730;2023-10-31T09:00:38;11.27;;;1.60;;
51981;SDS011;37998;53.416;6.730;2023-10-31T09:03:06;3.28;;;1.27;;
51981;SDS011;37998;53.416;6.730;2023-10-31T09:05:33;7.53;;;1.40;;
51981;SDS011;37998;53.416;6.730;2023-10-31T09:07:59;4.75;;;1.55;;
51981;SDS011;37998;53.416;6.730;2023-10-31T09:10:25;6.68;;;1.40;;
51981;SDS011;37998;53.416;6.730;2023-10-31T09:12:50;9.50;;;1.60;;
51981;SDS011;37998;53.416;6.730;2023-10-31T09:15:17;5.38;;;1.10;;
51981;SDS011;37998;53.416;6.730;2023-10-31T09:17:44;5.47;;;1.40;;
51981;SDS011;37998;53.416;6.730;2023-10-31T09:20:10;5.88;;;1.30;;
51981;SDS011;37998;53.416;6.730;2023-10-31T09:22:37;3.63;;;1.20;;
51981;SDS011;37998;53.416;6.730;2023-10-31T09:25:03;9.63;;;1.75;;
51981;SDS011;37998;53.416;6.730;2023-10-31T09:27:29;5.40;;;1.20;;
51981;SDS011;37998;53.416;6.730;2023-10-31T09:29:55;7.60;;;1.05;;
51981;SDS011;37998;53.416;6.730;2023-10-31T09:32:21;3.88;;;0.90;;
51981;SDS011;37998;53.416;6.730;2023-10-31T09:34:47;6.22;;;1.20;;
51981;SDS011;37998;53.416;6.730;2023-10-31T09:37:13;10.77;;;1.77;;
51981;SDS011;37998;53.416;6.730;2023-10-31T09:39:39;5.40;;;1.20;;
51981;SDS011;37998;53.416;6.730;2023-10-31T09:42:05;5.88;;;1.20;;
51981;SDS011;37998;53.416;6.730;2023-10-31T09:44:31;6.18;;;0.90;;
51981;SDS011;37998;53.416;6.730;2023-10-31T09:46:57;3.55;;;1.20;;
51981;SDS011;37998;53.416;6.730;2023-10-31T09:49:23;4.30;;;1.00;;
51981;SDS011;37998;53.416;6.730;2023-10-31T09:51:50;3.08;;;0.82;;
51981;SDS011;37998;53.416;6.730;2023-10-31T09:54:16;4.47;;;1.13;;
51981;SDS011;37998;53.416;6.730;2023-10-31T09:56:43;2.38;;;0.90;;
51981;SDS011;37998;53.416;6.730;2023-10-31T09:59:09;3.17;;;0.77;;
51981;SDS011;37998;53.416;6.730;2023-10-31T10:01:35;3.45;;;0.90;;
51981;SDS011;37998;53.416;6.730;2023-10-31T10:04:01;4.97;;;1.17;;
51981;SDS011;37998;53.416;6.730;2023-10-31T10:06:27;3.30;;;1.05;;
51981;SDS011;37998;53.416;6.730;2023-10-31T10:08:55;9.23;;;1.60;;
51981;SDS011;37998;53.416;6.730;2023-10-31T10:11:21;7.40;;;1.10;;
51981;SDS011;37998;53.416;6.730;2023-10-31T10:13:47;2.67;;;1.20;;
51981;SDS011;37998;53.416;6.730;2023-10-31T10:16:14;3.55;;;1.00;;
51981;SDS011;37998;53.416;6.730;2023-10-31T10:18:53;3.83;;;1.05;;
51981;SDS011;37998;53.416;6.730;2023-10-31T10:21:19;4.90;;;1.20;;
51981;SDS011;37998;53.416;6.730;2023-10-31T10:23:46;5.72;;;1.58;;
51981;SDS011;37998;53.416;6.730;2023-10-31T10:26:14;3.60;;;1.10;;
51981;SDS011;37998;53.416;6.730;2023-10-31T10:28:42;3.78;;;1.40;;
51981;SDS011;37998;53.416;6.730;2023-10-31T10:31:13;10.32;;;1.70;;
51981;SDS011;37998;53.416;6.730;2023-10-31T10:33:40;10.18;;;1.52;;
51981;SDS011;37998;53.416;6.730;2023-10-31T10:36:07;4.35;;;1.30;;
51981;SDS011;37998;53.416;6.730;2023-10-31T10:38:35;7.40;;;1.95;;
51981;SDS011;37998;53.416;6.730;2023-10-31T10:41:03;4.40;;;1.60;;
51981;SDS011;37998;53.416;6.730;2023-10-31T10:43:31;9.50;;;1.48;;
51981;SDS011;37998;53.416;6.730;2023-10-31T10:46:02;7.20;;;1.55;;
51981;SDS011;37998;53.416;6.730;2023-10-31T10:48:30;8.48;;;1.75;;
51981;SDS011;37998;53.416;6.730;2023-10-31T10:51:06;6.95;;;1.40;;
51981;SDS011;37998;53.416;6.730;2023-10-31T10:53:42;4.75;;;1.67;;
51981;SDS011;37998;53.416;6.730;2023-10-31T10:59:24;7.80;;;1.25;;
51981;SDS011;37998;53.416;6.730;2023-10-31T11:02:01;4.25;;;1.60;;
51981;SDS011;37998;53.416;6.730;2023-10-31T11:04:31;9.95;;;2.22;;
51981;SDS011;37998;53.416;6.730;2023-10-31T11:06:58;8.88;;;1.75;;
51981;SDS011;37998;53.416;6.730;2023-10-31T11:09:25;10.35;;;1.92;;
51981;SDS011;37998;53.416;6.730;2023-10-31T11:11:53;8.80;;;1.77;;
51981;SDS011;37998;53.416;6.730;2023-10-31T11:14:19;10.43;;;1.92;;
51981;SDS011;37998;53.416;6.730;2023-10-31T11:16:49;8.80;;;1.75;;
51981;SDS011;37998;53.416;6.730;2023-10-31T11:19:18;5.20;;;1.38;;
51981;SDS011;37998;53.416;6.730;2023-10-31T11:21:54;4.57;;;1.48;;
51981;SDS011;37998;53.416;6.730;2023-10-31T11:24:21;5.97;;;1.50;;
51981;SDS011;37998;53.416;6.730;2023-10-31T11:26:51;8.88;;;1.73;;
51981;SDS011;37998;53.416;6.730;2023-10-31T11:29:18;6.93;;;1.52;;
51981;SDS011;37998;53.416;6.730;2023-10-31T11:31:43;7.82;;;2.17;;
51981;SDS011;37998;53.416;6.730;2023-10-31T11:34:09;7.60;;;1.70;;
51981;SDS011;37998;53.416;6.730;2023-10-31T11:36:36;7.25;;;2.35;;
51981;SDS011;37998;53.416;6.730;2023-10-31T11:41:40;12.30;;;1.42;;
51981;SDS011;37998;53.416;6.730;2023-10-31T11:44:10;6.47;;;1.80;;
51981;SDS011;37998;53.416;6.730;2023-10-31T11:46:36;4.70;;;1.60;;
51981;SDS011;37998;53.416;6.730;2023-10-31T11:49:02;11.48;;;1.83;;
51981;SDS011;37998;53.416;6.730;2023-10-31T11:51:30;9.35;;;1.75;;
51981;SDS011;37998;53.416;6.730;2023-10-31T11:53:56;12.13;;;1.70;;
51981;SDS011;37998;53.416;6.730;2023-10-31T11:56:22;7.43;;;1.55;;
51981;SDS011;37998;53.416;6.730;2023-10-31T11:58:55;8.00;;;1.52;;
51981;SDS011;37998;53.416;6.730;2023-10-31T12:01:21;5.88;;;1.40;;
51981;SDS011;37998;53.416;6.730;2023-10-31T12:03:47;11.60;;;2.13;;
51981;SDS011;37998;53.416;6.730;2023-10-31T12:06:14;7.90;;;1.75;;
51981;SDS011;37998;53.416;6.730;2023-10-31T12:08:41;4.25;;;1.40;;
51981;SDS011;37998;53.416;6.730;2023-10-31T12:13:39;5.35;;;1.35;;
51981;SDS011;37998;53.416;6.730;2023-10-31T12:16:08;8.65;;;1.30;;
51981;SDS011;37998;53.416;6.730;2023-10-31T12:18:36;3.50;;;1.58;;
51981;SDS011;37998;53.416;6.730;2023-10-31T12:21:04;5.22;;;1.90;;
51981;SDS011;37998;53.416;6.730;2023-10-31T12:23:32;3.50;;;1.10;;
51981;SDS011;37998;53.416;6.730;2023-10-31T12:25:58;8.73;;;1.58;;
51981;SDS011;37998;53.416;6.730;2023-10-31T12:28:24;9.25;;;1.75;;
51981;SDS011;37998;53.416;6.730;2023-10-31T12:30:52;8.88;;;1.60;;
51981;SDS011;37998;53.416;6.730;2023-10-31T12:33:25;4.80;;;1.05;;
51981;SDS011;37998;53.416;6.730;2023-10-31T12:35:52;7.07;;;1.50;;
51981;SDS011;37998;53.416;6.730;2023-10-31T12:38:22;5.90;;;1.50;;
51981;SDS011;37998;53.416;6.730;2023-10-31T12:40:48;6.13;;;1.50;;
51981;SDS011;37998;53.416;6.730;2023-10-31T12:43:15;5.10;;;1.65;;
51981;SDS011;37998;53.416;6.730;2023-10-31T12:45:42;7.00;;;1.27;;
51981;SDS011;37998;53.416;6.730;2023-10-31T12:48:08;5.63;;;1.73;;
51981;SDS011;37998;53.416;6.730;2023-10-31T12:50:36;7.65;;;1.77;;
51981;SDS011;37998;53.416;6.730;2023-10-31T12:53:04;5.60;;;1.40;;
51981;SDS011;37998;53.416;6.730;2023-10-31T12:55:31;8.15;;;1.77;;
51981;SDS011;37998;53.416;6.730;2023-10-31T12:58:06;3.42;;;1.30;;
51981;SDS011;37998;53.416;6.730;2023-10-31T13:00:35;9.27;;;1.48;;
51981;SDS011;37998;53.416;6.730;2023-10-31T13:03:02;9.23;;;1.20;;
51981;SDS011;37998;53.416;6.730;2023-10-31T13:05:33;14.25;;;2.92;;
51981;SDS011;37998;53.416;6.730;2023-10-31T13:07:59;5.65;;;1.67;;
51981;SDS011;37998;53.416;6.730;2023-10-31T13:10:28;5.93;;;1.42;;
51981;SDS011;37998;53.416;6.730;2023-10-31T13:12:55;8.25;;;1.75;;
51981;SDS011;37998;53.416;6.730;2023-10-31T13:15:21;9.07;;;1.30;;
51981;SDS011;37998;53.416;6.730;2023-10-31T13:17:48;4.78;;;1.42;;
51981;SDS011;37998;53.416;6.730;2023-10-31T13:20:15;4.95;;;2.05;;
51981;SDS011;37998;53.416;6.730;2023-10-31T13:22:43;6.03;;;1.88;;
51981;SDS011;37998;53.416;6.730;2023-10-31T13:25:10;9.25;;;1.30;;
51981;SDS011;37998;53.416;6.730;2023-10-31T13:27:38;5.75;;;1.25;;
51981;SDS011;37998;53.416;6.730;2023-10-31T13:30:08;10.70;;;3.15;;
51981;SDS011;37998;53.416;6.730;2023-10-31T13:32:41;5.97;;;1.38;;
51981;SDS011;37998;53.416;6.730;2023-10-31T13:35:07;16.60;;;1.63;;
51981;SDS011;37998;53.416;6.730;2023-10-31T13:37:36;10.02;;;1.45;;
51981;SDS011;37998;53.416;6.730;2023-10-31T13:40:02;5.82;;;1.65;;
51981;SDS011;37998;53.416;6.730;2023-10-31T13:42:29;3.72;;;1.10;;
51981;SDS011;37998;53.416;6.730;2023-10-31T13:44:55;8.32;;;1.33;;
51981;SDS011;37998;53.416;6.730;2023-10-31T13:47:21;8.77;;;1.30;;
51981;SDS011;37998;53.416;6.730;2023-10-31T13:49:47;6.47;;;1.20;;
51981;SDS011;37998;53.416;6.730;2023-10-31T13:52:13;6.97;;;1.88;;
51981;SDS011;37998;53.416;6.730;2023-10-31T13:54:40;6.93;;;1.52;;
51981;SDS011;37998;53.416;6.730;2023-10-31T13:57:06;5.13;;;1.10;;
51981;SDS011;37998;53.416;6.730;2023-10-31T13:59:32;8.43;;;1.38;;
51981;SDS011;37998;53.416;6.730;2023-10-31T14:01:58;6.78;;;1.20;;
51981;SDS011;37998;53.416;6.730;2023-10-31T14:04:23;7.22;;;1.70;;
51981;SDS011;37998;53.416;6.730;2023-10-31T14:06:49;6.55;;;1.40;;
51981;SDS011;37998;53.416;6.730;2023-10-31T14:09:15;6.05;;;1.30;;
51981;SDS011;37998;53.416;6.730;2023-10-31T14:11:41;5.80;;;1.00;;
51981;SDS011;37998;53.416;6.730;2023-10-31T14:14:07;3.38;;;1.20;;
51981;SDS011;37998;53.416;6.730;2023-10-31T14:16:41;9.27;;;1.42;;
51981;SDS011;37998;53.416;6.730;2023-10-31T14:19:11;9.75;;;1.38;;
51981;SDS011;37998;53.416;6.730;2023-10-31T14:21:38;4.85;;;1.35;;
51981;SDS011;37998;53.416;6.730;2023-10-31T14:24:04;4.47;;;1.35;;
51981;SDS011;37998;53.416;6.730;2023-10-31T14:26:31;6.00;;;1.13;;
51981;SDS011;37998;53.416;6.730;2023-10-31T14:29:00;9.48;;;1.50;;
51981;SDS011;37998;53.416;6.730;2023-10-31T14:31:26;4.88;;;1.58;;
51981;SDS011;37998;53.416;6.730;2023-10-31T14:33:51;1.75;;;1.20;;
51981;SDS011;37998;53.416;6.730;2023-10-31T14:36:17;7.15;;;1.67;;
51981;SDS011;37998;53.416;6.730;2023-10-31T14:38:43;6.10;;;1.95;;
51981;SDS011;37998;53.416;6.730;2023-10-31T14:41:09;3.35;;;1.05;;
51981;SDS011;37998;53.416;6.730;2023-10-31T14:43:35;5.88;;;1.20;;
51981;SDS011;37998;53.416;6.730;2023-10-31T14:46:02;8.88;;;1.52;;
51981;SDS011;37998;53.416;6.730;2023-10-31T14:48:28;8.23;;;1.67;;
51981;SDS011;37998;53.416;6.730;2023-10-31T14:50:55;8.80;;;2.50;;